createdAt,value
2022-12-23T00:01:31.925Z,100495.78
2022-12-23T00:03:59.393Z,100495.78
2022-12-23T00:06:26.883Z,100494.00
2022-12-23T00:08:58.357Z,100491.38
2022-12-23T00:11:25.818Z,100496.50
2022-12-23T00:14:14.825Z,100494.00
2022-12-23T00:16:46.896Z,100501.59
2022-12-23T00:19:13.519Z,100516.00
2022-12-23T00:21:39.926Z,100515.19
2022-12-23T00:24:06.542Z,100518.66
2022-12-23T00:26:33.055Z,100525.50
2022-12-23T00:29:02.455Z,100526.34
2022-12-23T00:31:32.119Z,100527.22
2022-12-23T00:33:58.806Z,100522.97
2022-12-23T00:36:29.755Z,100536.69
2022-12-23T00:39:30.992Z,100534.19
2022-12-23T00:42:36.035Z,100543.56
2022-12-23T00:45:15.706Z,100542.69
2022-12-23T00:48:02.956Z,100537.66
2022-12-23T00:50:30.406Z,100531.72
2022-12-23T00:52:57.336Z,100541.09
2022-12-23T00:55:24.168Z,100534.38
2022-12-23T00:57:50.888Z,100538.59
2022-12-23T01:00:17.760Z,100543.69
2022-12-23T01:03:02.828Z,100548.84
2022-12-23T01:05:38.490Z,100554.00
2022-12-23T01:08:07.307Z,100557.50
2022-12-23T01:10:37.904Z,100559.22
2022-12-23T01:13:05.108Z,100551.56
2022-12-23T01:15:32.569Z,100555.84
2022-12-23T01:17:59.279Z,100560.09
2022-12-23T01:20:25.789Z,100562.66
2022-12-23T01:22:52.330Z,100558.41
2022-12-23T01:25:24.756Z,100562.69
2022-12-23T01:27:51.370Z,100566.94
2022-12-23T01:30:17.911Z,100578.06
2022-12-23T01:32:44.410Z,100579.72
2022-12-23T01:35:10.889Z,100573.84
2022-12-23T01:37:37.579Z,100578.06
2022-12-23T01:40:04.500Z,100589.13
2022-12-23T01:42:46.788Z,100589.16
2022-12-23T01:45:32.060Z,100584.06
2022-12-23T01:48:11.574Z,100589.16
2022-12-23T01:50:43.400Z,100591.72
2022-12-23T01:53:15.285Z,100589.94
2022-12-23T01:55:55.695Z,100595.06
2022-12-23T01:58:46.983Z,100604.41
2022-12-23T02:01:32.705Z,100616.34
2022-12-23T02:04:03.993Z,100620.66
2022-12-23T02:06:55.497Z,100620.66
2022-12-23T02:09:33.290Z,100619.81
2022-12-23T02:12:24.343Z,100625.81
2022-12-23T02:15:18.468Z,100626.69
2022-12-23T02:18:09.823Z,100628.41
2022-12-23T02:20:57.622Z,100636.94
2022-12-23T02:24:03.964Z,100636.13
2022-12-23T02:26:51.630Z,100644.66
2022-12-23T02:29:38.354Z,100641.25
2022-12-23T02:32:26.199Z,100663.41
2022-12-23T02:34:54.237Z,100654.97
2022-12-23T02:37:28.496Z,100661.00
2022-12-23T02:40:36.751Z,100661.06
2022-12-23T02:43:15.936Z,100656.00
2022-12-23T02:45:59.820Z,100667.09
2022-12-23T02:48:41.883Z,100675.66
2022-12-23T02:51:12.661Z,100674.88
2022-12-23T02:53:45.725Z,100679.13
2022-12-23T02:56:14.715Z,100686.00
2022-12-23T02:59:05.465Z,100683.59
2022-12-23T03:01:33.775Z,100695.59
2022-12-23T03:04:00.505Z,100693.03
2022-12-23T03:06:32.108Z,100695.59
2022-12-23T03:08:59.845Z,100696.50
2022-12-23T03:11:40.071Z,100695.63
2022-12-23T03:14:25.525Z,100699.16
2022-12-23T03:16:57.886Z,100693.28
2022-12-23T03:19:37.789Z,100690.84
2022-12-23T03:22:16.421Z,100700.25
2022-12-23T03:24:51.929Z,100698.59
2022-12-23T03:27:18.388Z,100679.91
2022-12-23T03:30:11.818Z,100691.81
2022-12-23T03:32:49.740Z,100673.94
2022-12-23T03:35:20.135Z,100679.88
2022-12-23T03:37:50.615Z,100681.56
2022-12-23T03:40:22.983Z,100696.03
2022-12-23T03:42:55.027Z,100696.06
2022-12-23T03:45:42.168Z,100692.72
2022-12-23T03:48:16.302Z,100704.63
2022-12-23T03:50:43.959Z,100696.22
2022-12-23T03:53:17.494Z,100698.00
2022-12-23T03:55:50.597Z,100696.31
2022-12-23T03:58:28.091Z,100695.53
2022-12-23T04:01:18.328Z,100695.63
2022-12-23T04:04:13.671Z,100707.59
2022-12-23T04:06:50.528Z,100721.25
2022-12-23T04:09:22.223Z,100724.63
2022-12-23T04:11:49.642Z,100722.13
2022-12-23T04:14:20.598Z,100726.38
2022-12-23T04:16:49.626Z,100723.81
2022-12-23T04:19:16.374Z,100737.47
2022-12-23T04:21:42.835Z,100740.91
2022-12-23T04:24:09.412Z,100737.47
2022-12-23T04:26:35.927Z,100741.72
2022-12-23T04:29:02.579Z,100751.94
2022-12-23T04:31:29.176Z,100751.03
2022-12-23T04:33:55.640Z,100751.88
2022-12-23T04:36:22.094Z,100745.91
2022-12-23T04:38:48.752Z,100742.53
2022-12-23T04:41:15.242Z,100732.34
2022-12-23T04:43:41.705Z,100743.38
2022-12-23T04:46:08.221Z,100744.22
2022-12-23T04:48:35.698Z,100750.13
2022-12-23T04:51:03.144Z,100743.31
2022-12-23T04:53:29.708Z,100733.94
2022-12-23T04:55:56.163Z,100727.97
2022-12-23T04:58:25.062Z,100725.38
2022-12-23T05:01:04.919Z,100732.22
2022-12-23T05:03:31.783Z,100728.75
2022-12-23T05:05:58.352Z,100733.03
2022-12-23T05:08:25.025Z,100725.41
2022-12-23T05:10:51.651Z,100727.09
2022-12-23T05:13:18.097Z,100726.25
2022-12-23T05:15:45.941Z,100733.84
2022-12-23T05:18:12.591Z,100733.00
2022-12-23T05:20:38.984Z,100732.16
2022-12-23T05:23:05.407Z,100740.66
2022-12-23T05:25:36.636Z,100749.19
2022-12-23T05:28:04.341Z,100752.63
2022-12-23T05:30:30.886Z,100757.78
2022-12-23T05:32:57.536Z,100759.50
2022-12-23T05:35:25.959Z,100765.44
2022-12-23T05:37:53.282Z,100767.94
2022-12-23T05:40:23.443Z,100769.66
2022-12-23T05:42:53.753Z,100769.66
2022-12-23T05:45:20.794Z,100785.84
2022-12-23T05:47:47.395Z,100786.78
2022-12-23T05:50:14.082Z,100778.28
2022-12-23T05:52:40.606Z,100780.00
2022-12-23T05:55:07.749Z,100778.31
2022-12-23T05:57:34.265Z,100785.13
2022-12-23T06:00:00.710Z,100777.50
2022-12-23T06:02:27.342Z,100776.66
2022-12-23T06:04:56.674Z,100771.56
2022-12-23T06:07:23.188Z,100773.25
2022-12-23T06:09:49.649Z,100772.41
2022-12-23T06:12:16.339Z,100768.97
2022-12-23T06:14:42.887Z,100765.59
2022-12-23T06:17:09.492Z,100774.88
2022-12-23T06:19:36.165Z,100764.66
2022-12-23T06:22:02.574Z,100751.88
2022-12-23T06:24:30.316Z,100751.88
2022-12-23T06:26:57.599Z,100745.91
2022-12-23T06:29:24.957Z,100753.56
2022-12-23T06:31:51.563Z,100750.16
2022-12-23T06:34:18.191Z,100746.78
2022-12-23T06:36:44.721Z,100749.25
2022-12-23T06:39:11.437Z,100756.03
2022-12-23T06:41:37.844Z,100758.56
2022-12-23T06:44:04.508Z,100760.28
2022-12-23T06:46:31.204Z,100764.53
2022-12-23T06:49:00.962Z,100772.22
2022-12-23T06:51:27.540Z,100777.31
2022-12-23T06:53:56.274Z,100779.81
2022-12-23T06:56:22.660Z,100786.59
2022-12-23T06:58:49.170Z,100783.22
2022-12-23T07:01:15.713Z,100786.56
2022-12-23T07:03:42.248Z,100789.13
2022-12-23T07:06:12.074Z,100788.25
2022-12-23T07:08:38.567Z,100794.16
2022-12-23T07:11:05.538Z,100794.16
2022-12-23T07:13:33.078Z,100794.16
2022-12-23T07:16:05.593Z,100801.88
2022-12-23T07:18:32.200Z,100811.22
2022-12-23T07:21:04.815Z,100815.47
2022-12-23T07:23:31.544Z,100812.06
2022-12-23T07:25:58.009Z,100812.94
2022-12-23T07:28:24.661Z,100812.94
2022-12-23T07:30:51.282Z,100811.31
2022-12-23T07:33:17.714Z,100818.13
2022-12-23T07:35:46.214Z,100820.72
2022-12-23T07:38:12.843Z,100813.88
2022-12-23T07:40:39.295Z,100812.16
2022-12-23T07:43:05.878Z,100801.91
2022-12-23T07:45:32.404Z,100794.25
2022-12-23T07:48:00.825Z,100791.69
2022-12-23T07:50:28.220Z,100794.22
2022-12-23T07:52:55.580Z,100795.97
2022-12-23T07:55:22.457Z,100788.34
2022-12-23T07:57:50.330Z,100782.38
2022-12-23T08:00:18.197Z,100782.38
2022-12-23T08:02:45.054Z,100789.22
2022-12-23T08:05:13.613Z,100790.09
2022-12-23T08:07:41.061Z,100785.84
2022-12-23T08:10:08.737Z,100783.38
2022-12-23T08:12:35.158Z,100783.38
2022-12-23T08:15:01.596Z,100781.66
2022-12-23T08:17:31.187Z,100782.50
2022-12-23T08:19:57.712Z,100783.34
2022-12-23T08:22:24.495Z,100778.28
2022-12-23T08:24:52.417Z,100773.16
2022-12-23T08:27:18.934Z,100778.28
2022-12-23T08:29:45.578Z,100777.44
2022-12-23T08:32:12.235Z,100777.44
2022-12-23T08:34:38.822Z,100775.72
2022-12-23T08:37:05.278Z,100758.69
2022-12-23T08:39:31.906Z,100756.91
2022-12-23T08:41:58.512Z,100753.53
2022-12-23T08:44:27.864Z,100764.53
2022-12-23T08:46:55.296Z,100766.28
2022-12-23T08:49:22.349Z,100765.47
2022-12-23T08:51:49.668Z,100757.78
2022-12-23T08:54:17.476Z,100745.88
2022-12-23T08:56:43.977Z,100747.53
2022-12-23T08:59:19.129Z,100745.84
2022-12-23T09:01:46.848Z,100733.91
2022-12-23T09:04:13.619Z,100735.63
2022-12-23T09:06:42.529Z,100731.38
2022-12-23T09:09:11.605Z,100724.63
2022-12-23T09:11:38.441Z,100726.28
2022-12-23T09:14:05.907Z,100721.19
2022-12-23T09:16:32.676Z,100716.06
2022-12-23T09:18:59.504Z,100719.50
2022-12-23T09:21:26.368Z,100722.00
2022-12-23T09:23:53.080Z,100714.34
2022-12-23T09:26:25.111Z,100714.34
2022-12-23T09:28:52.242Z,100717.72
2022-12-23T09:31:19.428Z,100715.09
2022-12-23T09:33:52.670Z,100722.72
2022-12-23T09:36:20.345Z,100715.94
2022-12-23T09:38:46.963Z,100715.09
2022-12-23T09:41:36.970Z,100717.69
2022-12-23T09:44:23.684Z,100714.31
2022-12-23T09:47:01.047Z,100709.16
2022-12-23T09:49:27.844Z,100715.03
2022-12-23T09:52:00.240Z,100703.09
2022-12-23T09:54:29.426Z,100694.63
2022-12-23T09:57:05.411Z,100693.75
2022-12-23T09:59:51.101Z,100681.84
2022-12-23T10:02:45.184Z,100657.06
2022-12-23T10:05:29.107Z,100659.56
2022-12-23T10:08:15.277Z,100654.47
2022-12-23T10:10:49.991Z,100647.56
2022-12-23T10:13:29.718Z,100637.34
2022-12-23T10:16:03.325Z,100637.31
2022-12-23T10:18:53.307Z,100633.00
2022-12-23T10:21:57.930Z,100631.31
2022-12-23T10:24:26.750Z,100629.59
2022-12-23T10:27:04.499Z,100623.59
2022-12-23T10:29:33.092Z,100625.25
2022-12-23T10:32:11.744Z,100625.19
2022-12-23T10:34:44.412Z,100622.56
2022-12-23T10:37:24.554Z,100621.72
2022-12-23T10:40:02.947Z,100619.13
2022-12-23T10:42:38.209Z,100611.44
2022-12-23T10:45:07.489Z,100608.81
2022-12-23T10:47:42.763Z,100610.56
2022-12-23T10:50:27.916Z,100607.09
2022-12-23T10:52:58.920Z,100601.16
2022-12-23T10:55:33.729Z,100601.16
2022-12-23T10:58:08.875Z,100601.16
2022-12-23T11:00:40.036Z,100595.19
2022-12-23T11:03:20.886Z,100596.00
2022-12-23T11:05:50.893Z,100590.03
2022-12-23T11:08:18.370Z,100585.75
2022-12-23T11:10:45.116Z,100582.31
2022-12-23T11:13:23.855Z,100570.41
2022-12-23T11:15:50.345Z,100572.94
2022-12-23T11:18:19.518Z,100571.19
2022-12-23T11:21:02.362Z,100572.09
2022-12-23T11:23:31.938Z,100580.53
2022-12-23T11:26:07.545Z,100572.06
2022-12-23T11:28:46.521Z,100567.78
2022-12-23T11:31:14.600Z,100566.03
2022-12-23T11:33:48.887Z,100552.44
2022-12-23T11:36:24.930Z,100542.19
2022-12-23T11:39:04.607Z,100542.13
2022-12-23T11:41:38.813Z,100526.81
2022-12-23T11:44:17.263Z,100519.16
2022-12-23T11:46:43.674Z,100507.25
2022-12-23T11:49:19.415Z,100498.72
2022-12-23T11:51:49.174Z,100490.19
2022-12-23T11:54:18.563Z,100492.75
2022-12-23T11:56:47.646Z,100480.78
2022-12-23T11:59:34.008Z,100465.47
2022-12-23T12:02:05.586Z,100469.75
2022-12-23T12:04:35.378Z,100462.91
2022-12-23T12:07:04.187Z,100462.03
2022-12-23T12:09:32.345Z,100459.50
2022-12-23T12:12:05.711Z,100451.84
2022-12-23T12:14:44.983Z,100451.00
2022-12-23T12:17:33.481Z,100445.06
2022-12-23T12:20:10.811Z,100440.78
2022-12-23T12:22:41.418Z,100442.53
2022-12-23T12:25:51.566Z,100446.78
2022-12-23T12:28:22.878Z,100443.41
2022-12-23T12:31:00.548Z,100428.94
2022-12-23T12:33:44.872Z,100420.47
2022-12-23T12:36:32.923Z,100399.19
2022-12-23T12:39:01.212Z,100390.69
2022-12-23T12:41:37.097Z,100390.66
2022-12-23T12:44:27.859Z,100388.97
2022-12-23T12:47:36.329Z,100371.94
2022-12-23T12:50:04.805Z,100368.50
2022-12-23T12:52:39.015Z,100359.19
2022-12-23T12:55:25.832Z,100345.56
2022-12-23T12:57:52.489Z,100346.44
2022-12-23T13:00:23.061Z,100343.88
2022-12-23T13:03:10.992Z,100344.72
2022-12-23T13:05:53.311Z,100341.31
2022-12-23T13:08:41.197Z,100332.78
2022-12-23T13:11:24.908Z,100327.69
2022-12-23T13:14:33.935Z,100323.38
2022-12-23T13:17:08.519Z,100318.25
2022-12-23T13:19:56.207Z,100319.94
2022-12-23T13:22:28.608Z,100323.31
2022-12-23T13:25:10.072Z,100321.59
2022-12-23T13:28:02.493Z,100316.53
2022-12-23T13:30:35.604Z,100317.38
2022-12-23T13:33:15.557Z,100310.59
2022-12-23T13:36:31.369Z,100302.94
2022-12-23T13:39:00.530Z,100301.28
2022-12-23T13:41:34.808Z,100301.28
2022-12-23T13:44:05.387Z,100302.94
2022-12-23T13:46:38.550Z,100316.47
2022-12-23T13:49:11.376Z,100302.84
2022-12-23T13:51:37.761Z,100292.63
2022-12-23T13:54:27.607Z,100286.63
2022-12-23T13:57:08.557Z,100279.03
2022-12-23T13:59:43.861Z,100266.25
2022-12-23T14:02:35.080Z,100262.03
2022-12-23T14:05:03.339Z,100255.19
2022-12-23T14:07:33.329Z,100248.38
2022-12-23T14:10:11.221Z,100228.03
2022-12-23T14:12:40.568Z,100217.00
2022-12-23T14:15:31.968Z,100217.78
2022-12-23T14:18:15.968Z,100227.84
2022-12-23T14:20:50.731Z,100226.91
2022-12-23T14:23:25.175Z,100228.47
2022-12-23T14:26:09.332Z,100232.69
2022-12-23T14:28:54.126Z,100223.28
2022-12-23T14:31:45.303Z,100210.50
2022-12-23T14:34:17.722Z,100219.09
2022-12-23T14:37:21.166Z,100214.94
2022-12-23T14:39:49.332Z,100214.13
2022-12-23T14:42:41.527Z,100213.38
2022-12-23T14:45:41.457Z,100220.94
2022-12-23T14:48:37.165Z,100223.47
2022-12-23T14:51:09.671Z,100230.28
2022-12-23T14:53:57.124Z,100243.91
2022-12-23T14:56:38.868Z,100235.38
2022-12-23T14:59:34.807Z,100224.25
2022-12-23T15:02:01.140Z,100232.81
2022-12-23T15:04:44.199Z,100222.63
2022-12-23T15:07:22.304Z,100223.53
2022-12-23T15:10:00.531Z,100222.69
2022-12-23T15:12:31.711Z,100210.81
2022-12-23T15:15:02.426Z,100202.38
2022-12-23T15:17:34.851Z,100207.47
2022-12-23T15:20:10.502Z,100200.63
2022-12-23T15:22:41.221Z,100193.88
2022-12-23T15:25:26.742Z,100204.13
2022-12-23T15:28:01.236Z,100205.91
2022-12-23T15:30:34.425Z,100213.50
2022-12-23T15:33:11.876Z,100209.28
2022-12-23T15:35:48.465Z,100202.50
2022-12-23T15:38:16.917Z,100193.19
2022-12-23T15:40:43.856Z,100201.72
2022-12-23T15:43:24.853Z,100211.09
2022-12-23T15:45:52.590Z,100194.13
2022-12-23T15:48:29.047Z,100178.88
2022-12-23T15:51:01.251Z,100191.66
2022-12-23T15:53:34.837Z,100202.78
2022-12-23T15:56:26.075Z,100202.81
2022-12-23T15:58:54.446Z,100201.88
2022-12-23T16:01:22.398Z,100214.63
2022-12-23T16:04:02.544Z,100220.66
2022-12-23T16:06:32.986Z,100218.94
2022-12-23T16:09:25.533Z,100217.19
2022-12-23T16:12:00.392Z,100221.47
2022-12-23T16:14:39.744Z,100235.06
2022-12-23T16:17:08.949Z,100227.41
2022-12-23T16:19:47.562Z,100228.25
2022-12-23T16:22:24.948Z,100213.75
2022-12-23T16:25:17.158Z,100218.88
2022-12-23T16:27:48.801Z,100212.94
2022-12-23T16:30:25.798Z,100204.41
2022-12-23T16:32:58.351Z,100204.44
2022-12-23T16:35:30.695Z,100195.16
2022-12-23T16:38:08.656Z,100209.66
2022-12-23T16:40:35.136Z,100222.41
2022-12-23T16:43:01.747Z,100218.19
2022-12-23T16:45:28.292Z,100220.72
2022-12-23T16:47:57.156Z,100221.59
2022-12-23T16:50:24.002Z,100219.03
2022-12-23T16:52:50.497Z,100228.38
2022-12-23T16:55:19.958Z,100216.47
2022-12-23T16:57:46.728Z,100227.50
2022-12-23T17:00:16.033Z,100229.19
2022-12-23T17:02:47.719Z,100235.97
2022-12-23T17:05:19.488Z,100233.41
2022-12-23T17:07:46.177Z,100235.91
2022-12-23T17:10:14.863Z,100235.03
2022-12-23T17:12:43.404Z,100240.16
2022-12-23T17:15:22.905Z,100242.69
2022-12-23T17:17:50.692Z,100230.69
2022-12-23T17:20:19.127Z,100221.41
2022-12-23T17:22:47.805Z,100234.25
2022-12-23T17:25:21.307Z,100247.06
2022-12-23T17:27:55.639Z,100247.88
2022-12-23T17:30:25.223Z,100241.03
2022-12-23T17:32:55.909Z,100236.69
2022-12-23T17:35:23.783Z,100240.16
2022-12-23T17:37:51.038Z,100241.84
2022-12-23T17:40:18.331Z,100241.75
2022-12-23T17:42:45.402Z,100244.97
2022-12-23T17:45:27.633Z,100241.41
2022-12-23T17:47:54.710Z,100243.84
2022-12-23T17:50:22.057Z,100230.16
2022-12-23T17:52:48.923Z,100237.69
2022-12-23T17:55:22.280Z,100243.44
2022-12-23T17:57:48.876Z,100230.53
2022-12-23T18:00:25.132Z,100232.06
2022-12-23T18:03:12.980Z,100233.59
2022-12-23T18:05:39.560Z,100243.59
2022-12-23T18:08:06.114Z,100235.75
2022-12-23T18:10:39.438Z,100251.75
2022-12-23T18:13:08.096Z,100243.97
2022-12-23T18:15:40.450Z,100256.47
2022-12-23T18:18:31.243Z,100256.34
2022-12-23T18:21:05.401Z,100265.53
2022-12-23T18:23:34.207Z,100255.22
2022-12-23T18:26:01.055Z,100262.75
2022-12-23T18:28:27.638Z,100265.25
2022-12-23T18:30:57.687Z,100269.38
2022-12-23T18:33:28.476Z,100270.97
2022-12-23T18:35:54.996Z,100267.53
2022-12-23T18:38:21.594Z,100278.56
2022-12-23T18:40:52.008Z,100281.06
2022-12-23T18:43:22.084Z,100281.88
2022-12-23T18:45:53.333Z,100296.28
2022-12-23T18:48:21.420Z,100292.06
2022-12-23T18:50:48.135Z,100294.53
2022-12-23T18:53:23.726Z,100303.84
2022-12-23T18:55:51.424Z,100299.56
2022-12-23T18:58:18.276Z,100305.50
2022-12-23T19:00:45.408Z,100309.75
2022-12-23T19:03:30.307Z,100301.25
2022-12-23T19:05:58.339Z,100305.50
2022-12-23T19:08:27.914Z,100313.31
2022-12-23T19:10:55.652Z,100308.19
2022-12-23T19:13:22.513Z,100309.88
2022-12-23T19:15:49.280Z,100311.63
2022-12-23T19:18:21.279Z,100315.00
2022-12-23T19:20:48.792Z,100304.78
2022-12-23T19:23:16.282Z,100309.91
2022-12-23T19:25:54.590Z,100312.44
2022-12-23T19:28:22.598Z,100314.06
2022-12-23T19:30:49.548Z,100316.69
2022-12-23T19:33:16.293Z,100326.09
2022-12-23T19:35:43.472Z,100333.78
2022-12-23T19:38:10.215Z,100336.31
2022-12-23T19:40:36.786Z,100333.78
2022-12-23T19:43:03.545Z,100336.31
2022-12-23T19:45:30.028Z,100345.69
2022-12-23T19:47:56.588Z,100349.06
2022-12-23T19:50:22.996Z,100344.75
2022-12-23T19:52:50.699Z,100346.44
2022-12-23T19:55:17.336Z,100357.56
2022-12-23T19:57:43.945Z,100357.47
2022-12-23T20:00:11.066Z,100366.03
2022-12-23T20:02:37.580Z,100374.50
2022-12-23T20:05:04.366Z,100385.44
2022-12-23T20:07:30.909Z,100382.94
2022-12-23T20:09:57.368Z,100385.53
2022-12-23T20:12:25.363Z,100393.28
2022-12-23T20:14:51.850Z,100393.22
2022-12-23T20:17:18.322Z,100393.28
2022-12-23T20:19:46.375Z,100389.03
2022-12-23T20:22:13.095Z,100399.28
2022-12-23T20:24:39.561Z,100405.19
2022-12-23T20:27:10.948Z,100406.06
2022-12-23T20:29:38.219Z,100404.34
2022-12-23T20:32:04.865Z,100432.41
2022-12-23T20:34:38.427Z,100416.13
2022-12-23T20:37:06.439Z,100417.06
2022-12-23T20:39:33.104Z,100423.91
2022-12-23T20:41:59.554Z,100424.75
2022-12-23T20:44:35.600Z,100426.41
2022-12-23T20:47:03.237Z,100425.53
2022-12-23T20:49:30.803Z,100432.31
2022-12-23T20:51:57.403Z,100440.00
2022-12-23T20:54:31.610Z,100442.56
2022-12-23T20:56:59.609Z,100451.88
2022-12-23T20:59:26.101Z,100457.84
2022-12-23T21:01:52.644Z,100473.19
2022-12-23T21:04:19.113Z,100473.88
2022-12-23T21:06:45.682Z,100474.75
2022-12-23T21:09:13.971Z,100484.94
2022-12-23T21:11:44.640Z,100476.44
2022-12-23T21:14:11.823Z,100478.16
2022-12-23T21:16:38.497Z,100487.63
2022-12-23T21:19:13.132Z,100485.00
2022-12-23T21:21:39.596Z,100490.06
2022-12-23T21:24:06.448Z,100495.19
2022-12-23T21:26:34.476Z,100496.78
2022-12-23T21:29:03.806Z,100504.59
2022-12-23T21:31:31.922Z,100499.47
2022-12-23T21:33:58.906Z,100506.25
2022-12-23T21:36:28.168Z,100507.91
2022-12-23T21:38:54.760Z,100520.72
2022-12-23T21:41:35.290Z,100519.94
2022-12-23T21:44:02.725Z,100530.25
2022-12-23T21:46:29.834Z,100532.78
2022-12-23T21:48:58.303Z,100532.88
2022-12-23T21:51:26.149Z,100537.22
2022-12-23T21:53:54.703Z,100543.09
2022-12-23T21:56:26.859Z,100537.09
2022-12-23T21:58:58.584Z,100543.97
2022-12-23T22:01:25.997Z,100557.69
2022-12-23T22:03:53.856Z,100550.03
2022-12-23T22:06:31.851Z,100556.88
2022-12-23T22:08:58.447Z,100552.75
2022-12-23T22:11:30.889Z,100560.59
2022-12-23T22:13:59.404Z,100568.56
2022-12-23T22:16:28.834Z,100572.22
2022-12-23T22:18:57.940Z,100574.94
2022-12-23T22:21:26.201Z,100578.59
2022-12-23T22:23:53.885Z,100594.91
2022-12-23T22:26:25.701Z,100593.28
2022-12-23T22:28:56.508Z,100605.25
2022-12-23T22:31:27.425Z,100612.09
2022-12-23T22:33:53.876Z,100601.88
2022-12-23T22:36:20.307Z,100613.75
2022-12-23T22:38:53.029Z,100619.72
2022-12-23T22:41:19.805Z,100623.09
2022-12-23T22:43:46.317Z,100623.09
2022-12-23T22:46:13.361Z,100635.00
2022-12-23T22:48:40.040Z,100636.69
2022-12-23T22:51:11.053Z,100624.78
2022-12-23T22:53:37.495Z,100635.09
2022-12-23T22:56:05.247Z,100623.19
2022-12-23T22:58:34.295Z,100632.53
2022-12-23T23:01:01.049Z,100640.22
2022-12-23T23:03:28.505Z,100646.94
2022-12-23T23:06:07.090Z,100635.88
2022-12-23T23:08:34.773Z,100648.59
2022-12-23T23:11:04.497Z,100657.88
2022-12-23T23:13:34.003Z,100652.78
2022-12-23T23:16:01.480Z,100653.66
2022-12-23T23:18:29.506Z,100654.47
2022-12-23T23:20:55.938Z,100656.22
2022-12-23T23:23:23.784Z,100673.22
2022-12-23T23:25:50.319Z,100671.53
2022-12-23T23:28:17.142Z,100668.13
2022-12-23T23:30:43.979Z,100676.66
2022-12-23T23:33:11.040Z,100673.25
2022-12-23T23:35:37.883Z,100671.53
2022-12-23T23:38:04.689Z,100678.34
2022-12-23T23:40:31.379Z,100672.41
2022-12-23T23:42:57.826Z,100702.28
2022-12-23T23:45:24.371Z,100684.31
2022-12-23T23:47:51.004Z,100697.00
2022-12-23T23:50:17.557Z,100714.97
2022-12-23T23:52:44.133Z,100712.41
2022-12-23T23:55:10.744Z,100718.28
2022-12-23T23:57:37.367Z,100711.56
